CheckWX is a tool to help pilots better visualize weather data.  It is not intended as a substitute for an official pre-flight weather briefing.

15:12:59 UTC

KCNU METAR
Chanute Martin Johnson Airport
Chanute, Kansas, USA
Current

21 mins ago

KCNU 261452Z AUTO 20006KT 5SM RA BR FEW090 BKN110 19/17 A3014 RMK AO2 LTG DSNT E-SW SLP199 P0004 60036 T01890172 51033
Observed
May-26 @ 14:52 UTC
Wind
  • 200° at 6 KTS
Visibility
5 SM
Flight Rules
MVFR
Conditions
Rain, Mist
Cloud Levels
  • Few at 9,000' AGL
  • Broken at 11,000' AGL
Temperature
19°C / 66°F
Dewpoint
17°C / 63°F
Humidity
88%
Altimeter
30.14" Hg
Pressure
1020.62 hPa
Current Rain
0.04"
Previous

36 mins ago

KCNU 261437Z AUTO 17003KT 10SM VCTS -RA SCT095 BKN110 19/17 A3013 RMK AO2 LTG DSNT ALQDS P0001 T01890172
Observed
May-26 @ 14:37 UTC
Wind
  • 170° at 3 KTS
Visibility
10 SM
Flight Rules
VFR
Conditions
Area Thunderstorm, Light Rain
Cloud Levels
  • Scattered at 9,500' AGL
  • Broken at 11,000' AGL
Temperature
19°C / 66°F
Dewpoint
17°C / 63°F
Humidity
88%
Altimeter
30.13" Hg
Pressure
1020.32 hPa
Current Rain
0.01"
Previous

59 mins ago

KCNU 261414Z AUTO 00000KT 10SM -RA BKN110 19/17 A3014 RMK AO2 LTG DSNT SE-W P0001 T01890172
Observed
May-26 @ 14:14 UTC
Visibility
10 SM
Flight Rules
VFR
Conditions
Light Rain
Cloud Levels
  • Broken at 11,000' AGL
Temperature
19°C / 66°F
Dewpoint
17°C / 63°F
Humidity
88%
Altimeter
30.14" Hg
Pressure
1020.62 hPa
Current Rain
0.01"